sensor_id;sensor_type;location;lat;lon;timestamp;temperature;humidity
24410;DHT22;12543;53.364;-1.504;2022-08-18T00:01:13;16.40;99.90
24410;DHT22;12543;53.364;-1.504;2022-08-18T00:03:43;16.40;99.90
24410;DHT22;12543;53.364;-1.504;2022-08-18T00:06:27;16.40;99.90
24410;DHT22;12543;53.364;-1.504;2022-08-18T00:09:00;16.50;99.90
24410;DHT22;12543;53.364;-1.504;2022-08-18T00:11:28;16.40;99.90
24410;DHT22;12543;53.364;-1.504;2022-08-18T00:14:12;16.50;99.90
24410;DHT22;12543;53.364;-1.504;2022-08-18T00:16:49;16.40;99.90
24410;DHT22;12543;53.364;-1.504;2022-08-18T00:19:17;16.40;99.90
24410;DHT22;12543;53.364;-1.504;2022-08-18T00:21:44;16.40;99.90
24410;DHT22;12543;53.364;-1.504;2022-08-18T00:24:11;16.40;99.90
24410;DHT22;12543;53.364;-1.504;2022-08-18T00:26:38;16.40;99.90
24410;DHT22;12543;53.364;-1.504;2022-08-18T00:29:07;16.30;99.90
24410;DHT22;12543;53.364;-1.504;2022-08-18T00:31:34;16.30;99.90
24410;DHT22;12543;53.364;-1.504;2022-08-18T00:34:01;16.30;99.90
24410;DHT22;12543;53.364;-1.504;2022-08-18T00:36:28;16.30;99.90
24410;DHT22;12543;53.364;-1.504;2022-08-18T00:38:58;16.30;99.90
24410;DHT22;12543;53.364;-1.504;2022-08-18T00:41:26;16.30;99.90
24410;DHT22;12543;53.364;-1.504;2022-08-18T00:43:55;16.30;99.90
24410;DHT22;12543;53.364;-1.504;2022-08-18T00:46:27;16.30;99.90
24410;DHT22;12543;53.364;-1.504;2022-08-18T00:48:55;16.30;99.90
24410;DHT22;12543;53.364;-1.504;2022-08-18T00:51:42;16.20;99.90
24410;DHT22;12543;53.364;-1.504;2022-08-18T00:54:39;16.30;99.90
24410;DHT22;12543;53.364;-1.504;2022-08-18T00:57:07;16.20;99.90
24410;DHT22;12543;53.364;-1.504;2022-08-18T00:59:49;16.20;99.90
24410;DHT22;12543;53.364;-1.504;2022-08-18T01:02:42;16.20;99.90
24410;DHT22;12543;53.364;-1.504;2022-08-18T01:05:21;16.20;99.90
24410;DHT22;12543;53.364;-1.504;2022-08-18T01:07:48;16.20;99.90
24410;DHT22;12543;53.364;-1.504;2022-08-18T01:10:19;16.20;99.90
24410;DHT22;12543;53.364;-1.504;2022-08-18T01:12:52;16.20;99.90
24410;DHT22;12543;53.364;-1.504;2022-08-18T01:15:22;16.20;99.90
24410;DHT22;12543;53.364;-1.504;2022-08-18T01:18:10;16.20;99.90
24410;DHT22;12543;53.364;-1.504;2022-08-18T01:21:07;16.10;99.90
24410;DHT22;12543;53.364;-1.504;2022-08-18T01:23:55;16.10;99.90
24410;DHT22;12543;53.364;-1.504;2022-08-18T01:26:23;16.10;99.90
24410;DHT22;12543;53.364;-1.504;2022-08-18T01:28:51;16.10;99.90
24410;DHT22;12543;53.364;-1.504;2022-08-18T01:31:41;16.10;99.90
24410;DHT22;12543;53.364;-1.504;2022-08-18T01:34:22;16.00;99.90
24410;DHT22;12543;53.364;-1.504;2022-08-18T01:36:51;16.00;99.90
24410;DHT22;12543;53.364;-1.504;2022-08-18T01:39:20;16.00;99.90
24410;DHT22;12543;53.364;-1.504;2022-08-18T01:42:08;16.00;99.90
24410;DHT22;12543;53.364;-1.504;2022-08-18T01:44:37;16.00;99.90
24410;DHT22;12543;53.364;-1.504;2022-08-18T01:47:08;16.00;99.90
24410;DHT22;12543;53.364;-1.504;2022-08-18T01:49:37;16.00;99.90
24410;DHT22;12543;53.364;-1.504;2022-08-18T01:52:17;16.00;99.90
24410;DHT22;12543;53.364;-1.504;2022-08-18T01:54:48;16.00;99.90
24410;DHT22;12543;53.364;-1.504;2022-08-18T01:57:17;15.90;99.90
24410;DHT22;12543;53.364;-1.504;2022-08-18T01:59:45;16.00;99.90
24410;DHT22;12543;53.364;-1.504;2022-08-18T02:02:17;15.90;99.90
24410;DHT22;12543;53.364;-1.504;2022-08-18T02:04:46;15.90;99.90
24410;DHT22;12543;53.364;-1.504;2022-08-18T02:07:13;15.90;99.90
24410;DHT22;12543;53.364;-1.504;2022-08-18T02:09:41;15.90;99.90
24410;DHT22;12543;53.364;-1.504;2022-08-18T02:12:09;15.90;99.90
24410;DHT22;12543;53.364;-1.504;2022-08-18T02:14:36;15.90;99.90
24410;DHT22;12543;53.364;-1.504;2022-08-18T02:17:05;15.90;99.90
24410;DHT22;12543;53.364;-1.504;2022-08-18T02:19:35;16.00;99.90
24410;DHT22;12543;53.364;-1.504;2022-08-18T02:22:03;16.00;99.90
24410;DHT22;12543;53.364;-1.504;2022-08-18T02:24:30;16.00;99.90
24410;DHT22;12543;53.364;-1.504;2022-08-18T02:26:57;15.90;99.90
24410;DHT22;12543;53.364;-1.504;2022-08-18T02:29:24;16.00;99.90
24410;DHT22;12543;53.364;-1.504;2022-08-18T02:31:52;15.90;99.90
24410;DHT22;12543;53.364;-1.504;2022-08-18T02:34:19;15.90;99.90
24410;DHT22;12543;53.364;-1.504;2022-08-18T02:36:46;16.00;99.90
24410;DHT22;12543;53.364;-1.504;2022-08-18T02:39:13;16.00;99.90
24410;DHT22;12543;53.364;-1.504;2022-08-18T02:41:40;16.00;99.90
24410;DHT22;12543;53.364;-1.504;2022-08-18T02:44:08;16.00;99.90
24410;DHT22;12543;53.364;-1.504;2022-08-18T02:46:35;15.90;99.90
24410;DHT22;12543;53.364;-1.504;2022-08-18T02:49:05;16.00;99.90
24410;DHT22;12543;53.364;-1.504;2022-08-18T02:51:33;16.00;99.90
24410;DHT22;12543;53.364;-1.504;2022-08-18T02:54:01;16.00;99.90
24410;DHT22;12543;53.364;-1.504;2022-08-18T02:56:29;16.00;99.90
24410;DHT22;12543;53.364;-1.504;2022-08-18T02:59:11;15.90;99.90
24410;DHT22;12543;53.364;-1.504;2022-08-18T03:01:41;16.00;99.90
24410;DHT22;12543;53.364;-1.504;2022-08-18T03:04:10;16.00;99.90
24410;DHT22;12543;53.364;-1.504;2022-08-18T03:06:38;16.00;99.90
24410;DHT22;12543;53.364;-1.504;2022-08-18T03:09:08;16.00;99.90
24410;DHT22;12543;53.364;-1.504;2022-08-18T03:11:36;16.00;99.90
24410;DHT22;12543;53.364;-1.504;2022-08-18T03:14:04;16.00;99.90
24410;DHT22;12543;53.364;-1.504;2022-08-18T03:16:38;16.00;99.90
24410;DHT22;12543;53.364;-1.504;2022-08-18T03:19:19;16.00;99.90
24410;DHT22;12543;53.364;-1.504;2022-08-18T03:21:47;15.90;99.90
24410;DHT22;12543;53.364;-1.504;2022-08-18T03:24:14;16.00;99.90
24410;DHT22;12543;53.364;-1.504;2022-08-18T03:26:50;16.00;99.90
24410;DHT22;12543;53.364;-1.504;2022-08-18T03:29:19;16.00;99.90
24410;DHT22;12543;53.364;-1.504;2022-08-18T03:31:46;16.00;99.90
24410;DHT22;12543;53.364;-1.504;2022-08-18T03:34:15;16.00;99.90
24410;DHT22;12543;53.364;-1.504;2022-08-18T03:36:45;16.00;99.90
24410;DHT22;12543;53.364;-1.504;2022-08-18T03:39:13;16.00;99.90
24410;DHT22;12543;53.364;-1.504;2022-08-18T03:41:41;16.00;99.90
24410;DHT22;12543;53.364;-1.504;2022-08-18T03:44:31;16.00;99.90
24410;DHT22;12543;53.364;-1.504;2022-08-18T03:46:59;16.00;99.90
24410;DHT22;12543;53.364;-1.504;2022-08-18T03:49:29;15.90;99.90
24410;DHT22;12543;53.364;-1.504;2022-08-18T03:51:56;16.00;99.90
24410;DHT22;12543;53.364;-1.504;2022-08-18T03:54:27;16.00;99.90
24410;DHT22;12543;53.364;-1.504;2022-08-18T03:56:54;16.00;99.90
24410;DHT22;12543;53.364;-1.504;2022-08-18T03:59:23;16.00;99.90
24410;DHT22;12543;53.364;-1.504;2022-08-18T04:01:52;16.00;99.90
24410;DHT22;12543;53.364;-1.504;2022-08-18T04:04:24;16.00;99.90
24410;DHT22;12543;53.364;-1.504;2022-08-18T04:06:57;16.00;99.90
24410;DHT22;12543;53.364;-1.504;2022-08-18T04:09:27;16.00;99.90
24410;DHT22;12543;53.364;-1.504;2022-08-18T04:11:55;16.00;99.90
24410;DHT22;12543;53.364;-1.504;2022-08-18T04:14:24;16.00;99.90
24410;DHT22;12543;53.364;-1.504;2022-08-18T04:16:57;16.00;99.90
24410;DHT22;12543;53.364;-1.504;2022-08-18T04:19:24;16.00;99.90
24410;DHT22;12543;53.364;-1.504;2022-08-18T04:21:55;16.00;99.90
24410;DHT22;12543;53.364;-1.504;2022-08-18T04:24:23;16.00;99.90
24410;DHT22;12543;53.364;-1.504;2022-08-18T04:26:52;16.00;99.90
24410;DHT22;12543;53.364;-1.504;2022-08-18T04:29:20;16.00;99.90
24410;DHT22;12543;53.364;-1.504;2022-08-18T04:31:48;16.00;99.90
24410;DHT22;12543;53.364;-1.504;2022-08-18T04:34:17;16.00;99.90
24410;DHT22;12543;53.364;-1.504;2022-08-18T04:36:46;16.00;99.90
24410;DHT22;12543;53.364;-1.504;2022-08-18T04:39:13;16.00;99.90
24410;DHT22;12543;53.364;-1.504;2022-08-18T04:41:42;16.00;99.90
24410;DHT22;12543;53.364;-1.504;2022-08-18T04:44:11;16.00;99.90
24410;DHT22;12543;53.364;-1.504;2022-08-18T04:46:44;16.00;99.90
24410;DHT22;12543;53.364;-1.504;2022-08-18T04:49:14;16.00;99.90
24410;DHT22;12543;53.364;-1.504;2022-08-18T04:51:44;16.00;99.90
24410;DHT22;12543;53.364;-1.504;2022-08-18T04:54:52;15.90;99.90
24410;DHT22;12543;53.364;-1.504;2022-08-18T04:57:19;16.00;99.90
24410;DHT22;12543;53.364;-1.504;2022-08-18T04:59:49;16.00;99.90
24410;DHT22;12543;53.364;-1.504;2022-08-18T05:02:18;16.00;99.90
24410;DHT22;12543;53.364;-1.504;2022-08-18T05:04:46;16.00;99.90
24410;DHT22;12543;53.364;-1.504;2022-08-18T05:07:15;16.00;99.90
24410;DHT22;12543;53.364;-1.504;2022-08-18T05:09:42;16.00;99.90
24410;DHT22;12543;53.364;-1.504;2022-08-18T05:12:12;16.00;99.90
24410;DHT22;12543;53.364;-1.504;2022-08-18T05:14:41;16.00;99.90
24410;DHT22;12543;53.364;-1.504;2022-08-18T05:17:11;16.00;99.90
24410;DHT22;12543;53.364;-1.504;2022-08-18T05:19:38;16.00;99.90
24410;DHT22;12543;53.364;-1.504;2022-08-18T05:22:11;16.00;99.90
24410;DHT22;12543;53.364;-1.504;2022-08-18T05:24:44;16.00;99.90
24410;DHT22;12543;53.364;-1.504;2022-08-18T05:27:12;16.10;99.90
24410;DHT22;12543;53.364;-1.504;2022-08-18T05:29:39;16.10;99.90
24410;DHT22;12543;53.364;-1.504;2022-08-18T05:32:12;16.10;99.90
24410;DHT22;12543;53.364;-1.504;2022-08-18T05:35:06;16.10;99.90
24410;DHT22;12543;53.364;-1.504;2022-08-18T05:37:50;16.10;99.90
24410;DHT22;12543;53.364;-1.504;2022-08-18T05:40:21;16.10;99.90
24410;DHT22;12543;53.364;-1.504;2022-08-18T05:42:50;16.10;99.90
24410;DHT22;12543;53.364;-1.504;2022-08-18T05:45:19;16.10;99.90
24410;DHT22;12543;53.364;-1.504;2022-08-18T05:47:46;16.10;99.90
24410;DHT22;12543;53.364;-1.504;2022-08-18T05:50:17;16.10;99.90
24410;DHT22;12543;53.364;-1.504;2022-08-18T05:52:55;16.10;99.90
24410;DHT22;12543;53.364;-1.504;2022-08-18T05:55:34;16.10;99.90
24410;DHT22;12543;53.364;-1.504;2022-08-18T05:58:25;16.10;99.90
24410;DHT22;12543;53.364;-1.504;2022-08-18T06:01:27;16.10;99.90
24410;DHT22;12543;53.364;-1.504;2022-08-18T06:04:03;16.10;99.90
24410;DHT22;12543;53.364;-1.504;2022-08-18T06:06:32;16.20;99.90
24410;DHT22;12543;53.364;-1.504;2022-08-18T06:11:37;16.20;99.90
24410;DHT22;12543;53.364;-1.504;2022-08-18T06:14:05;16.20;99.90
24410;DHT22;12543;53.364;-1.504;2022-08-18T06:35:53;16.20;99.90
24410;DHT22;12543;53.364;-1.504;2022-08-18T06:38:42;16.20;99.90
24410;DHT22;12543;53.364;-1.504;2022-08-18T06:44:35;16.30;99.90
24410;DHT22;12543;53.364;-1.504;2022-08-18T06:49:47;16.20;99.90
24410;DHT22;12543;53.364;-1.504;2022-08-18T06:52:32;16.30;99.90
24410;DHT22;12543;53.364;-1.504;2022-08-18T06:55:05;16.30;99.90
24410;DHT22;12543;53.364;-1.504;2022-08-18T06:57:39;16.30;99.90
24410;DHT22;12543;53.364;-1.504;2022-08-18T07:03:08;16.30;99.90
24410;DHT22;12543;53.364;-1.504;2022-08-18T07:08:32;16.40;99.90
24410;DHT22;12543;53.364;-1.504;2022-08-18T07:11:30;16.40;99.90
24410;DHT22;12543;53.364;-1.504;2022-08-18T07:14:21;16.40;99.90
24410;DHT22;12543;53.364;-1.504;2022-08-18T07:16:48;16.50;99.90
24410;DHT22;12543;53.364;-1.504;2022-08-18T07:19:28;16.50;99.90
24410;DHT22;12543;53.364;-1.504;2022-08-18T07:22:05;16.50;99.90
24410;DHT22;12543;53.364;-1.504;2022-08-18T07:24:41;16.60;99.90
24410;DHT22;12543;53.364;-1.504;2022-08-18T07:27:13;16.60;99.90
24410;DHT22;12543;53.364;-1.504;2022-08-18T07:30:00;16.60;99.90
24410;DHT22;12543;53.364;-1.504;2022-08-18T07:32:47;16.60;99.90
24410;DHT22;12543;53.364;-1.504;2022-08-18T07:35:22;16.60;99.90
24410;DHT22;12543;53.364;-1.504;2022-08-18T07:37:55;16.70;99.90
24410;DHT22;12543;53.364;-1.504;2022-08-18T07:40:35;16.70;99.90
24410;DHT22;12543;53.364;-1.504;2022-08-18T07:43:08;16.70;99.90
24410;DHT22;12543;53.364;-1.504;2022-08-18T07:45:43;16.70;99.90
24410;DHT22;12543;53.364;-1.504;2022-08-18T07:48:18;16.70;99.90
24410;DHT22;12543;53.364;-1.504;2022-08-18T07:54:06;16.70;99.90
24410;DHT22;12543;53.364;-1.504;2022-08-18T08:08:43;16.90;99.90
24410;DHT22;12543;53.364;-1.504;2022-08-18T08:14:41;16.90;99.90
24410;DHT22;12543;53.364;-1.504;2022-08-18T08:19:58;17.00;99.90
24410;DHT22;12543;53.364;-1.504;2022-08-18T08:36:46;17.00;99.90
24410;DHT22;12543;53.364;-1.504;2022-08-18T08:39:23;17.00;99.90
24410;DHT22;12543;53.364;-1.504;2022-08-18T08:41:59;17.00;99.90
24410;DHT22;12543;53.364;-1.504;2022-08-18T08:44:56;17.00;99.90
24410;DHT22;12543;53.364;-1.504;2022-08-18T08:50:10;17.10;99.90
24410;DHT22;12543;53.364;-1.504;2022-08-18T08:52:46;17.10;99.90
24410;DHT22;12543;53.364;-1.504;2022-08-18T08:55:25;17.10;99.90
24410;DHT22;12543;53.364;-1.504;2022-08-18T09:00:24;17.10;99.90
24410;DHT22;12543;53.364;-1.504;2022-08-18T09:22:52;17.60;99.90
24410;DHT22;12543;53.364;-1.504;2022-08-18T09:36:33;18.60;99.90
24410;DHT22;12543;53.364;-1.504;2022-08-18T09:42:14;19.10;99.90
24410;DHT22;12543;53.364;-1.504;2022-08-18T09:50:30;19.20;99.90
24410;DHT22;12543;53.364;-1.504;2022-08-18T09:56:17;19.30;99.90
24410;DHT22;12543;53.364;-1.504;2022-08-18T10:02:03;19.50;99.90
24410;DHT22;12543;53.364;-1.504;2022-08-18T10:04:48;19.70;99.90
24410;DHT22;12543;53.364;-1.504;2022-08-18T10:07:21;19.70;99.90
24410;DHT22;12543;53.364;-1.504;2022-08-18T10:24:20;21.40;99.90
24410;DHT22;12543;53.364;-1.504;2022-08-18T10:27:07;21.70;99.90
24410;DHT22;12543;53.364;-1.504;2022-08-18T10:29:50;22.10;99.90
24410;DHT22;12543;53.364;-1.504;2022-08-18T10:32:24;22.30;99.90
24410;DHT22;12543;53.364;-1.504;2022-08-18T10:35:02;22.50;99.90
24410;DHT22;12543;53.364;-1.504;2022-08-18T10:37:35;22.70;99.90
24410;DHT22;12543;53.364;-1.504;2022-08-18T10:42:52;23.30;99.90
24410;DHT22;12543;53.364;-1.504;2022-08-18T10:48:21;23.20;99.90
24410;DHT22;12543;53.364;-1.504;2022-08-18T10:51:27;23.20;99.90
24410;DHT22;12543;53.364;-1.504;2022-08-18T10:55:04;23.10;99.90
24410;DHT22;12543;53.364;-1.504;2022-08-18T11:00:20;23.20;99.90
24410;DHT22;12543;53.364;-1.504;2022-08-18T11:02:52;23.20;99.90
24410;DHT22;12543;53.364;-1.504;2022-08-18T11:05:34;23.40;99.90
24410;DHT22;12543;53.364;-1.504;2022-08-18T11:08:05;23.40;99.90
24410;DHT22;12543;53.364;-1.504;2022-08-18T11:10:47;23.40;99.90
24410;DHT22;12543;53.364;-1.504;2022-08-18T11:19:38;23.10;99.90
24410;DHT22;12543;53.364;-1.504;2022-08-18T11:22:27;23.00;99.90
24410;DHT22;12543;53.364;-1.504;2022-08-18T11:25:00;22.80;99.90
24410;DHT22;12543;53.364;-1.504;2022-08-18T11:27:32;22.60;99.90
24410;DHT22;12543;53.364;-1.504;2022-08-18T11:30:08;22.60;99.90
24410;DHT22;12543;53.364;-1.504;2022-08-18T11:32:40;22.60;99.90
24410;DHT22;12543;53.364;-1.504;2022-08-18T11:35:28;22.60;99.90
24410;DHT22;12543;53.364;-1.504;2022-08-18T11:37:59;22.50;99.90
24410;DHT22;12543;53.364;-1.504;2022-08-18T11:40:40;22.50;99.90
24410;DHT22;12543;53.364;-1.504;2022-08-18T11:43:30;22.50;99.90
24410;DHT22;12543;53.364;-1.504;2022-08-18T11:46:31;22.30;99.90
24410;DHT22;12543;53.364;-1.504;2022-08-18T11:49:18;22.20;99.90
24410;DHT22;12543;53.364;-1.504;2022-08-18T11:52:14;22.20;99.90
24410;DHT22;12543;53.364;-1.504;2022-08-18T11:55:04;22.30;99.90
24410;DHT22;12543;53.364;-1.504;2022-08-18T11:57:54;22.40;99.90
24410;DHT22;12543;53.364;-1.504;2022-08-18T12:03:36;22.40;99.90
24410;DHT22;12543;53.364;-1.504;2022-08-18T12:08:55;22.40;99.90
24410;DHT22;12543;53.364;-1.504;2022-08-18T12:11:51;22.30;99.90
24410;DHT22;12543;53.364;-1.504;2022-08-18T12:14:22;22.20;99.90
24410;DHT22;12543;53.364;-1.504;2022-08-18T12:16:58;22.10;99.90
24410;DHT22;12543;53.364;-1.504;2022-08-18T12:19:27;22.00;99.90
24410;DHT22;12543;53.364;-1.504;2022-08-18T12:21:59;22.00;99.90
24410;DHT22;12543;53.364;-1.504;2022-08-18T12:24:32;22.00;99.90
24410;DHT22;12543;53.364;-1.504;2022-08-18T12:27:04;22.00;99.90
24410;DHT22;12543;53.364;-1.504;2022-08-18T12:29:53;21.90;99.90
24410;DHT22;12543;53.364;-1.504;2022-08-18T12:32:25;21.80;99.90
24410;DHT22;12543;53.364;-1.504;2022-08-18T12:35:12;21.80;99.90
24410;DHT22;12543;53.364;-1.504;2022-08-18T12:37:43;21.70;99.90
24410;DHT22;12543;53.364;-1.504;2022-08-18T12:40:30;21.60;99.90
24410;DHT22;12543;53.364;-1.504;2022-08-18T12:42:58;21.60;99.90
24410;DHT22;12543;53.364;-1.504;2022-08-18T12:45:26;21.50;99.90
24410;DHT22;12543;53.364;-1.504;2022-08-18T12:47:54;21.40;99.90
24410;DHT22;12543;53.364;-1.504;2022-08-18T12:50:22;21.40;99.90
24410;DHT22;12543;53.364;-1.504;2022-08-18T12:52:59;21.30;99.90
24410;DHT22;12543;53.364;-1.504;2022-08-18T12:55:29;21.20;99.90
24410;DHT22;12543;53.364;-1.504;2022-08-18T12:57:57;21.10;99.90
24410;DHT22;12543;53.364;-1.504;2022-08-18T13:00:25;21.00;99.90
24410;DHT22;12543;53.364;-1.504;2022-08-18T13:02:56;21.00;99.90
24410;DHT22;12543;53.364;-1.504;2022-08-18T13:05:23;20.90;99.90
24410;DHT22;12543;53.364;-1.504;2022-08-18T13:08:01;20.90;99.90
24410;DHT22;12543;53.364;-1.504;2022-08-18T13:10:34;20.90;99.90
24410;DHT22;12543;53.364;-1.504;2022-08-18T13:13:17;21.00;99.90
24410;DHT22;12543;53.364;-1.504;2022-08-18T13:15:46;21.10;99.90
24410;DHT22;12543;53.364;-1.504;2022-08-18T13:18:25;21.10;99.90
24410;DHT22;12543;53.364;-1.504;2022-08-18T13:20:58;21.10;99.90
24410;DHT22;12543;53.364;-1.504;2022-08-18T13:23:26;21.10;99.90
24410;DHT22;12543;53.364;-1.504;2022-08-18T13:25:55;21.10;99.90
24410;DHT22;12543;53.364;-1.504;2022-08-18T13:28:31;21.10;99.90
24410;DHT22;12543;53.364;-1.504;2022-08-18T13:31:15;21.00;99.90
24410;DHT22;12543;53.364;-1.504;2022-08-18T13:33:42;21.00;99.90
24410;DHT22;12543;53.364;-1.504;2022-08-18T13:36:26;20.90;99.90
24410;DHT22;12543;53.364;-1.504;2022-08-18T13:38:54;20.90;99.90
24410;DHT22;12543;53.364;-1.504;2022-08-18T13:41:23;20.90;99.90
24410;DHT22;12543;53.364;-1.504;2022-08-18T13:43:55;20.90;99.90
24410;DHT22;12543;53.364;-1.504;2022-08-18T13:46:24;20.80;99.90
24410;DHT22;12543;53.364;-1.504;2022-08-18T13:48:57;20.80;99.90
24410;DHT22;12543;53.364;-1.504;2022-08-18T13:51:29;20.80;99.90
24410;DHT22;12543;53.364;-1.504;2022-08-18T13:53:56;20.80;99.90
24410;DHT22;12543;53.364;-1.504;2022-08-18T13:56:43;20.90;99.90
24410;DHT22;12543;53.364;-1.504;2022-08-18T13:59:18;21.00;99.90
24410;DHT22;12543;53.364;-1.504;2022-08-18T14:01:49;21.10;99.90
24410;DHT22;12543;53.364;-1.504;2022-08-18T14:04:19;21.20;99.90
24410;DHT22;12543;53.364;-1.504;2022-08-18T14:06:53;21.30;99.90
24410;DHT22;12543;53.364;-1.504;2022-08-18T14:09:25;21.40;99.90
24410;DHT22;12543;53.364;-1.504;2022-08-18T14:12:12;21.50;99.90
24410;DHT22;12543;53.364;-1.504;2022-08-18T14:14:53;21.50;99.90
24410;DHT22;12543;53.364;-1.504;2022-08-18T14:17:23;21.50;99.90
24410;DHT22;12543;53.364;-1.504;2022-08-18T14:19:52;21.50;99.90
24410;DHT22;12543;53.364;-1.504;2022-08-18T14:22:51;21.50;99.90
24410;DHT22;12543;53.364;-1.504;2022-08-18T14:25:37;21.40;99.90
24410;DHT22;12543;53.364;-1.504;2022-08-18T14:28:25;21.40;99.90
24410;DHT22;12543;53.364;-1.504;2022-08-18T14:30:53;21.40;99.90
24410;DHT22;12543;53.364;-1.504;2022-08-18T14:33:23;21.50;99.90
24410;DHT22;12543;53.364;-1.504;2022-08-18T14:36:11;21.50;99.90
24410;DHT22;12543;53.364;-1.504;2022-08-18T14:38:39;21.40;99.90
24410;DHT22;12543;53.364;-1.504;2022-08-18T14:41:10;21.40;99.90
24410;DHT22;12543;53.364;-1.504;2022-08-18T14:43:39;21.40;99.90
24410;DHT22;12543;53.364;-1.504;2022-08-18T14:46:26;21.40;99.90
24410;DHT22;12543;53.364;-1.504;2022-08-18T14:48:58;21.40;99.90
24410;DHT22;12543;53.364;-1.504;2022-08-18T14:51:31;21.40;99.90
24410;DHT22;12543;53.364;-1.504;2022-08-18T14:54:00;21.50;99.90
24410;DHT22;12543;53.364;-1.504;2022-08-18T14:56:27;21.50;99.90
24410;DHT22;12543;53.364;-1.504;2022-08-18T14:58:55;21.50;99.90
24410;DHT22;12543;53.364;-1.504;2022-08-18T15:01:23;21.60;99.90
24410;DHT22;12543;53.364;-1.504;2022-08-18T15:03:52;21.60;99.90
24410;DHT22;12543;53.364;-1.504;2022-08-18T15:06:20;21.70;99.90
24410;DHT22;12543;53.364;-1.504;2022-08-18T15:08:54;21.70;99.90
24410;DHT22;12543;53.364;-1.504;2022-08-18T15:11:23;21.70;99.90
24410;DHT22;12543;53.364;-1.504;2022-08-18T15:13:50;21.80;99.90
24410;DHT22;12543;53.364;-1.504;2022-08-18T15:16:21;21.90;99.90
24410;DHT22;12543;53.364;-1.504;2022-08-18T15:19:01;21.90;99.90
24410;DHT22;12543;53.364;-1.504;2022-08-18T15:21:49;21.90;99.90
24410;DHT22;12543;53.364;-1.504;2022-08-18T15:24:40;22.00;99.90
24410;DHT22;12543;53.364;-1.504;2022-08-18T15:27:33;22.00;99.90
24410;DHT22;12543;53.364;-1.504;2022-08-18T15:30:12;22.00;99.90
24410;DHT22;12543;53.364;-1.504;2022-08-18T15:32:49;21.90;99.90
24410;DHT22;12543;53.364;-1.504;2022-08-18T15:35:18;21.90;99.90
24410;DHT22;12543;53.364;-1.504;2022-08-18T15:37:47;21.90;99.90
24410;DHT22;12543;53.364;-1.504;2022-08-18T15:40:23;21.90;99.90
24410;DHT22;12543;53.364;-1.504;2022-08-18T15:43:06;21.80;99.90
24410;DHT22;12543;53.364;-1.504;2022-08-18T15:45:39;21.90;99.90
24410;DHT22;12543;53.364;-1.504;2022-08-18T15:48:17;21.90;99.90
24410;DHT22;12543;53.364;-1.504;2022-08-18T15:50:46;22.00;99.90
24410;DHT22;12543;53.364;-1.504;2022-08-18T15:53:23;22.00;99.90
24410;DHT22;12543;53.364;-1.504;2022-08-18T15:55:56;22.00;99.90
24410;DHT22;12543;53.364;-1.504;2022-08-18T15:58:23;22.10;99.90
24410;DHT22;12543;53.364;-1.504;2022-08-18T16:00:55;22.10;99.90
24410;DHT22;12543;53.364;-1.504;2022-08-18T16:03:24;22.10;99.90
24410;DHT22;12543;53.364;-1.504;2022-08-18T16:05:54;22.10;99.90
24410;DHT22;12543;53.364;-1.504;2022-08-18T16:08:23;22.10;99.90
24410;DHT22;12543;53.364;-1.504;2022-08-18T16:10:52;22.00;99.90
24410;DHT22;12543;53.364;-1.504;2022-08-18T16:13:20;22.00;99.90
24410;DHT22;12543;53.364;-1.504;2022-08-18T16:15:48;21.90;99.90
24410;DHT22;12543;53.364;-1.504;2022-08-18T16:18:18;21.80;99.90
24410;DHT22;12543;53.364;-1.504;2022-08-18T16:20:47;21.70;99.90
24410;DHT22;12543;53.364;-1.504;2022-08-18T16:23:18;21.70;99.90
24410;DHT22;12543;53.364;-1.504;2022-08-18T16:25:45;21.60;99.90
24410;DHT22;12543;53.364;-1.504;2022-08-18T16:28:12;21.60;99.90
24410;DHT22;12543;53.364;-1.504;2022-08-18T16:30:40;21.50;99.90
24410;DHT22;12543;53.364;-1.504;2022-08-18T16:33:07;21.50;99.90
24410;DHT22;12543;53.364;-1.504;2022-08-18T16:35:35;21.50;99.90
24410;DHT22;12543;53.364;-1.504;2022-08-18T16:38:07;21.50;99.90
24410;DHT22;12543;53.364;-1.504;2022-08-18T16:40:35;21.40;99.90
24410;DHT22;12543;53.364;-1.504;2022-08-18T16:43:03;21.40;99.90
24410;DHT22;12543;53.364;-1.504;2022-08-18T16:45:30;21.40;99.90
24410;DHT22;12543;53.364;-1.504;2022-08-18T16:47:59;21.40;99.90
24410;DHT22;12543;53.364;-1.504;2022-08-18T16:50:28;21.30;99.90
24410;DHT22;12543;53.364;-1.504;2022-08-18T16:52:56;21.20;99.90
24410;DHT22;12543;53.364;-1.504;2022-08-18T16:55:23;21.20;99.90
24410;DHT22;12543;53.364;-1.504;2022-08-18T16:57:51;21.10;99.90
24410;DHT22;12543;53.364;-1.504;2022-08-18T17:00:41;21.10;99.90
24410;DHT22;12543;53.364;-1.504;2022-08-18T17:03:27;21.10;99.90
24410;DHT22;12543;53.364;-1.504;2022-08-18T17:06:16;21.00;99.90
24410;DHT22;12543;53.364;-1.504;2022-08-18T17:08:43;21.00;99.90
24410;DHT22;12543;53.364;-1.504;2022-08-18T17:11:13;20.90;99.90
24410;DHT22;12543;53.364;-1.504;2022-08-18T17:13:43;20.90;99.90
24410;DHT22;12543;53.364;-1.504;2022-08-18T17:16:11;20.80;99.90
24410;DHT22;12543;53.364;-1.504;2022-08-18T17:18:40;20.80;99.90
24410;DHT22;12543;53.364;-1.504;2022-08-18T17:21:10;20.80;99.90
24410;DHT22;12543;53.364;-1.504;2022-08-18T17:23:38;20.80;99.90
24410;DHT22;12543;53.364;-1.504;2022-08-18T17:26:09;20.70;99.90
24410;DHT22;12543;53.364;-1.504;2022-08-18T17:28:47;20.70;99.90
24410;DHT22;12543;53.364;-1.504;2022-08-18T17:31:23;20.70;99.90
24410;DHT22;12543;53.364;-1.504;2022-08-18T17:33:56;20.70;99.90
24410;DHT22;12543;53.364;-1.504;2022-08-18T17:39:29;20.60;99.90
24410;DHT22;12543;53.364;-1.504;2022-08-18T17:41:58;20.50;99.90
24410;DHT22;12543;53.364;-1.504;2022-08-18T17:44:45;20.50;99.90
24410;DHT22;12543;53.364;-1.504;2022-08-18T17:47:26;20.40;99.90
24410;DHT22;12543;53.364;-1.504;2022-08-18T17:49:56;20.30;99.90
24410;DHT22;12543;53.364;-1.504;2022-08-18T17:53:00;20.20;99.90
24410;DHT22;12543;53.364;-1.504;2022-08-18T17:55:58;20.20;99.90
24410;DHT22;12543;53.364;-1.504;2022-08-18T18:01:04;20.00;99.90
24410;DHT22;12543;53.364;-1.504;2022-08-18T18:03:32;20.00;99.90
24410;DHT22;12543;53.364;-1.504;2022-08-18T18:08:58;19.90;99.90
24410;DHT22;12543;53.364;-1.504;2022-08-18T18:11:30;19.90;99.90
24410;DHT22;12543;53.364;-1.504;2022-08-18T18:13:59;19.90;99.90
24410;DHT22;12543;53.364;-1.504;2022-08-18T18:16:32;19.90;99.90
24410;DHT22;12543;53.364;-1.504;2022-08-18T18:19:05;19.90;99.90
24410;DHT22;12543;53.364;-1.504;2022-08-18T18:21:34;19.90;99.90
24410;DHT22;12543;53.364;-1.504;2022-08-18T18:24:29;19.90;99.90
24410;DHT22;12543;53.364;-1.504;2022-08-18T18:26:57;19.90;99.90
24410;DHT22;12543;53.364;-1.504;2022-08-18T18:29:27;19.90;99.90
24410;DHT22;12543;53.364;-1.504;2022-08-18T18:32:06;19.90;99.90
24410;DHT22;12543;53.364;-1.504;2022-08-18T18:35:07;19.80;99.90
24410;DHT22;12543;53.364;-1.504;2022-08-18T18:37:43;19.90;99.90
24410;DHT22;12543;53.364;-1.504;2022-08-18T18:40:35;19.80;99.90
24410;DHT22;12543;53.364;-1.504;2022-08-18T18:46:14;19.70;99.90